sensor_id;sensor_type;location;lat;lon;timestamp;pressure;altitude;pressure_sealevel;temperature;humidity
10014;BME280;45684;48.358;10.746;2023-06-22T00:00:26;96208.34;;;21.02;100.00
10014;BME280;45684;48.358;10.746;2023-06-22T00:02:55;96201.63;;;20.92;100.00
10014;BME280;45684;48.358;10.746;2023-06-22T00:05:24;96215.75;;;20.91;100.00
10014;BME280;45684;48.358;10.746;2023-06-22T00:07:51;96216.09;;;20.82;100.00
10014;BME280;45684;48.358;10.746;2023-06-22T00:10:19;96215.69;;;20.83;100.00
10014;BME280;45684;48.358;10.746;2023-06-22T00:12:47;96219.59;;;20.79;100.00
10014;BME280;45684;48.358;10.746;2023-06-22T00:15:15;96217.22;;;20.77;100.00
10014;BME280;45684;48.358;10.746;2023-06-22T00:17:43;96216.84;;;20.75;100.00
10014;BME280;45684;48.358;10.746;2023-06-22T00:20:12;96220.72;;;20.74;100.00
10014;BME280;45684;48.358;10.746;2023-06-22T00:22:40;96218.72;;;20.68;100.00
10014;BME280;45684;48.358;10.746;2023-06-22T00:25:09;96220.66;;;20.63;100.00
10014;BME280;45684;48.358;10.746;2023-06-22T00:27:37;96230.81;;;20.59;100.00
10014;BME280;45684;48.358;10.746;2023-06-22T00:30:07;96219.41;;;20.54;100.00
10014;BME280;45684;48.358;10.746;2023-06-22T00:32:34;96218.56;;;20.50;100.00
10014;BME280;45684;48.358;10.746;2023-06-22T00:35:03;96223.59;;;20.44;100.00
10014;BME280;45684;48.358;10.746;2023-06-22T00:37:32;96230.22;;;20.39;100.00
10014;BME280;45684;48.358;10.746;2023-06-22T00:40:00;96214.44;;;20.33;100.00
10014;BME280;45684;48.358;10.746;2023-06-22T00:42:28;96211.34;;;20.34;100.00
10014;BME280;45684;48.358;10.746;2023-06-22T00:44:55;96212.53;;;20.33;100.00
10014;BME280;45684;48.358;10.746;2023-06-22T00:47:23;96215.28;;;20.33;100.00
10014;BME280;45684;48.358;10.746;2023-06-22T00:49:52;96192.94;;;20.38;100.00
10014;BME280;45684;48.358;10.746;2023-06-22T00:52:20;96186.31;;;20.47;100.00
10014;BME280;45684;48.358;10.746;2023-06-22T00:54:56;96184.34;;;20.44;100.00
10014;BME280;45684;48.358;10.746;2023-06-22T00:57:26;96184.75;;;20.46;100.00
10014;BME280;45684;48.358;10.746;2023-06-22T00:59:55;96182.78;;;20.43;100.00
10014;BME280;45684;48.358;10.746;2023-06-22T01:02:23;96189.41;;;20.42;100.00
10014;BME280;45684;48.358;10.746;2023-06-22T01:04:51;96189.41;;;20.42;100.00
10014;BME280;45684;48.358;10.746;2023-06-22T01:07:22;96198.84;;;20.41;100.00
10014;BME280;45684;48.358;10.746;2023-06-22T01:09:59;96189.56;;;20.52;100.00
10014;BME280;45684;48.358;10.746;2023-06-22T01:12:32;96189.56;;;20.56;100.00
10014;BME280;45684;48.358;10.746;2023-06-22T01:15:07;96191.53;;;20.52;100.00
10014;BME280;45684;48.358;10.746;2023-06-22T01:17:40;96194.66;;;20.54;100.00
10014;BME280;45684;48.358;10.746;2023-06-22T01:20:10;96198.97;;;20.55;100.00
10014;BME280;45684;48.358;10.746;2023-06-22T01:22:48;96193.13;;;20.60;100.00
10014;BME280;45684;48.358;10.746;2023-06-22T01:25:26;96201.81;;;20.62;100.00
10014;BME280;45684;48.358;10.746;2023-06-22T01:28:00;96206.06;;;20.56;100.00
10014;BME280;45684;48.358;10.746;2023-06-22T01:30:32;96217.41;;;20.51;100.00
10014;BME280;45684;48.358;10.746;2023-06-22T01:33:05;96214.97;;;20.46;100.00
10014;BME280;45684;48.358;10.746;2023-06-22T01:35:34;96221.25;;;20.43;100.00
10014;BME280;45684;48.358;10.746;2023-06-22T01:38:03;96224.38;;;20.45;100.00
10014;BME280;45684;48.358;10.746;2023-06-22T01:40:33;96226.41;;;20.48;100.00
10014;BME280;45684;48.358;10.746;2023-06-22T01:43:02;96227.13;;;20.45;100.00
10014;BME280;45684;48.358;10.746;2023-06-22T01:45:30;96231.81;;;20.41;100.00
10014;BME280;45684;48.358;10.746;2023-06-22T01:48:02;96234.91;;;20.35;100.00
10014;BME280;45684;48.358;10.746;2023-06-22T01:50:30;96234.50;;;20.33;100.00
10014;BME280;45684;48.358;10.746;2023-06-22T01:52:58;96233.28;;;20.31;100.00
10014;BME280;45684;48.358;10.746;2023-06-22T01:55:26;96224.28;;;20.34;100.00
10014;BME280;45684;48.358;10.746;2023-06-22T01:57:54;96224.66;;;20.32;100.00
10014;BME280;45684;48.358;10.746;2023-06-22T02:00:22;96222.25;;;20.27;100.00
10014;BME280;45684;48.358;10.746;2023-06-22T02:02:58;96214.44;;;20.33;100.00
10014;BME280;45684;48.358;10.746;2023-06-22T02:05:32;96211.69;;;20.33;100.00
10014;BME280;45684;48.358;10.746;2023-06-22T02:08:08;96217.59;;;20.31;100.00
10014;BME280;45684;48.358;10.746;2023-06-22T02:10:38;96223.47;;;20.30;100.00
10014;BME280;45684;48.358;10.746;2023-06-22T02:13:09;96215.94;;;20.23;100.00
10014;BME280;45684;48.358;10.746;2023-06-22T02:15:38;96209.69;;;20.26;100.00
10014;BME280;45684;48.358;10.746;2023-06-22T02:18:06;96209.63;;;20.19;100.00
10014;BME280;45684;48.358;10.746;2023-06-22T02:20:37;96204.84;;;20.12;100.00
10014;BME280;45684;48.358;10.746;2023-06-22T02:23:05;96210.72;;;20.11;100.00
10014;BME280;45684;48.358;10.746;2023-06-22T02:25:35;96202.44;;;20.07;100.00
10014;BME280;45684;48.358;10.746;2023-06-22T02:28:04;96217.31;;;20.03;100.00
10014;BME280;45684;48.358;10.746;2023-06-22T02:30:32;96206.28;;;19.99;100.00
10014;BME280;45684;48.358;10.746;2023-06-22T02:32:59;96206.25;;;19.96;100.00
10014;BME280;45684;48.358;10.746;2023-06-22T02:35:28;96220.31;;;19.91;100.00
10014;BME280;45684;48.358;10.746;2023-06-22T02:37:59;96218.72;;;19.90;100.00
10014;BME280;45684;48.358;10.746;2023-06-22T02:40:28;96213.91;;;19.79;100.00
10014;BME280;45684;48.358;10.746;2023-06-22T02:42:57;96228.03;;;19.78;100.00
10014;BME280;45684;48.358;10.746;2023-06-22T02:45:29;96221.75;;;19.77;100.00
10014;BME280;45684;48.358;10.746;2023-06-22T02:47:57;96218.94;;;19.74;100.00
10014;BME280;45684;48.358;10.746;2023-06-22T02:50:25;96224.78;;;19.72;100.00
10014;BME280;45684;48.358;10.746;2023-06-22T02:52:54;96213.41;;;19.70;100.00
10014;BME280;45684;48.358;10.746;2023-06-22T02:55:24;96212.19;;;19.64;100.00
10014;BME280;45684;48.358;10.746;2023-06-22T02:57:55;96215.75;;;19.68;100.00
10014;BME280;45684;48.358;10.746;2023-06-22T03:00:28;96217.66;;;19.64;100.00
10014;BME280;45684;48.358;10.746;2023-06-22T03:02:57;96227.47;;;19.65;100.00
10014;BME280;45684;48.358;10.746;2023-06-22T03:05:26;96223.16;;;19.68;100.00
10014;BME280;45684;48.358;10.746;2023-06-22T03:07:55;96224.72;;;19.65;100.00
10014;BME280;45684;48.358;10.746;2023-06-22T03:10:24;96219.19;;;19.61;100.00
10014;BME280;45684;48.358;10.746;2023-06-22T03:12:54;96221.66;;;19.70;100.00
10014;BME280;45684;48.358;10.746;2023-06-22T03:15:22;96215.31;;;19.66;100.00
10014;BME280;45684;48.358;10.746;2023-06-22T03:17:50;96214.50;;;19.62;100.00
10014;BME280;45684;48.358;10.746;2023-06-22T03:20:18;96218.31;;;19.57;100.00
10014;BME280;45684;48.358;10.746;2023-06-22T03:22:46;96204.94;;;19.52;100.00
10014;BME280;45684;48.358;10.746;2023-06-22T03:25:15;96211.22;;;19.53;100.00
10014;BME280;45684;48.358;10.746;2023-06-22T03:27:46;96216.28;;;19.51;100.00
10014;BME280;45684;48.358;10.746;2023-06-22T03:30:14;96212.31;;;19.45;100.00
10014;BME280;45684;48.358;10.746;2023-06-22T03:32:44;96215.78;;;19.42;100.00
10014;BME280;45684;48.358;10.746;2023-06-22T03:35:13;96218.16;;;19.43;100.00
10014;BME280;45684;48.358;10.746;2023-06-22T03:37:41;96211.91;;;19.46;100.00
10014;BME280;45684;48.358;10.746;2023-06-22T03:40:09;96224.91;;;19.49;100.00
10014;BME280;45684;48.358;10.746;2023-06-22T03:42:37;96219.03;;;19.51;100.00
10014;BME280;45684;48.358;10.746;2023-06-22T03:45:08;96222.94;;;19.50;100.00
10014;BME280;45684;48.358;10.746;2023-06-22T03:47:36;96217.13;;;19.55;100.00
10014;BME280;45684;48.358;10.746;2023-06-22T03:50:04;96213.63;;;19.58;100.00
10014;BME280;45684;48.358;10.746;2023-06-22T03:52:32;96208.13;;;19.58;100.00
10014;BME280;45684;48.358;10.746;2023-06-22T03:55:00;96209.38;;;19.60;100.00
10014;BME280;45684;48.358;10.746;2023-06-22T03:57:28;96211.34;;;19.60;100.00
10014;BME280;45684;48.358;10.746;2023-06-22T03:59:56;96213.81;;;19.69;100.00
10014;BME280;45684;48.358;10.746;2023-06-22T04:02:26;96223.59;;;19.70;100.00
10014;BME280;45684;48.358;10.746;2023-06-22T04:04:53;96229.50;;;19.72;100.00
10014;BME280;45684;48.358;10.746;2023-06-22T04:07:22;96222.47;;;19.74;100.00
10014;BME280;45684;48.358;10.746;2023-06-22T04:09:49;96226.00;;;19.75;100.00
10014;BME280;45684;48.358;10.746;2023-06-22T04:12:17;96223.38;;;19.82;100.00
10014;BME280;45684;48.358;10.746;2023-06-22T04:14:45;96224.16;;;19.86;100.00
10014;BME280;45684;48.358;10.746;2023-06-22T04:17:13;96216.38;;;19.88;100.00
10014;BME280;45684;48.358;10.746;2023-06-22T04:19:43;96231.72;;;19.93;100.00
10014;BME280;45684;48.358;10.746;2023-06-22T04:22:10;96232.13;;;19.95;100.00
10014;BME280;45684;48.358;10.746;2023-06-22T04:24:38;96225.88;;;19.98;100.00
10014;BME280;45684;48.358;10.746;2023-06-22T04:27:06;96234.53;;;20.00;100.00
10014;BME280;45684;48.358;10.746;2023-06-22T04:29:34;96227.88;;;20.01;100.00
10014;BME280;45684;48.358;10.746;2023-06-22T04:32:02;96219.72;;;20.08;100.00
10014;BME280;45684;48.358;10.746;2023-06-22T04:34:31;96217.00;;;20.11;100.00
10014;BME280;45684;48.358;10.746;2023-06-22T04:37:00;96213.53;;;20.18;100.00
10014;BME280;45684;48.358;10.746;2023-06-22T04:39:28;96218.25;;;20.18;100.00
10014;BME280;45684;48.358;10.746;2023-06-22T04:41:56;96224.56;;;20.22;100.00
10014;BME280;45684;48.358;10.746;2023-06-22T04:44:27;96228.91;;;20.26;100.00
10014;BME280;45684;48.358;10.746;2023-06-22T04:46:58;96233.72;;;20.36;100.00
10014;BME280;45684;48.358;10.746;2023-06-22T04:49:30;96221.25;;;20.43;100.00
10014;BME280;45684;48.358;10.746;2023-06-22T04:52:04;96238.91;;;20.45;100.00
10014;BME280;45684;48.358;10.746;2023-06-22T04:54:32;96221.72;;;20.48;100.00
10014;BME280;45684;48.358;10.746;2023-06-22T04:57:00;96213.91;;;20.54;100.00
10014;BME280;45684;48.358;10.746;2023-06-22T04:59:29;96202.50;;;20.55;100.00
10014;BME280;45684;48.358;10.746;2023-06-22T05:01:59;96195.91;;;20.63;100.00
10014;BME280;45684;48.358;10.746;2023-06-22T05:04:27;96196.75;;;20.68;100.00
10014;BME280;45684;48.358;10.746;2023-06-22T05:06:58;96201.06;;;20.69;100.00
10014;BME280;45684;48.358;10.746;2023-06-22T05:09:28;96201.09;;;20.72;100.00
10014;BME280;45684;48.358;10.746;2023-06-22T05:11:56;96193.66;;;20.76;100.00
10014;BME280;45684;48.358;10.746;2023-06-22T05:14:26;96202.34;;;20.82;100.00
10014;BME280;45684;48.358;10.746;2023-06-22T05:16:54;96208.66;;;20.86;100.00
10014;BME280;45684;48.358;10.746;2023-06-22T05:19:25;96205.56;;;20.95;100.00
10014;BME280;45684;48.358;10.746;2023-06-22T05:21:57;96197.00;;;21.03;100.00
10014;BME280;45684;48.358;10.746;2023-06-22T05:24:25;96186.81;;;21.11;100.00
10014;BME280;45684;48.358;10.746;2023-06-22T05:26:54;96180.97;;;21.20;100.00
10014;BME280;45684;48.358;10.746;2023-06-22T05:29:22;96192.03;;;21.27;100.00
10014;BME280;45684;48.358;10.746;2023-06-22T05:31:50;96181.81;;;21.27;100.00
10014;BME280;45684;48.358;10.746;2023-06-22T05:34:18;96192.84;;;21.31;100.00
10014;BME280;45684;48.358;10.746;2023-06-22T05:36:45;96198.69;;;21.29;100.00
10014;BME280;45684;48.358;10.746;2023-06-22T05:39:14;96179.06;;;21.31;100.00
10014;BME280;45684;48.358;10.746;2023-06-22T05:41:42;96193.25;;;21.33;100.00
10014;BME280;45684;48.358;10.746;2023-06-22T05:44:12;96185.84;;;21.41;100.00
10014;BME280;45684;48.358;10.746;2023-06-22T05:46:40;96184.69;;;21.45;100.00
10014;BME280;45684;48.358;10.746;2023-06-22T05:49:11;96193.34;;;21.51;100.00
10014;BME280;45684;48.358;10.746;2023-06-22T05:51:39;96195.72;;;21.56;100.00
10014;BME280;45684;48.358;10.746;2023-06-22T05:54:07;96193.75;;;21.56;100.00
10014;BME280;45684;48.358;10.746;2023-06-22T05:56:35;96192.56;;;21.57;100.00
10014;BME280;45684;48.358;10.746;2023-06-22T05:59:03;96203.63;;;21.64;100.00
10014;BME280;45684;48.358;10.746;2023-06-22T06:01:33;96182.78;;;21.67;100.00
10014;BME280;45684;48.358;10.746;2023-06-22T06:04:02;96174.94;;;21.69;100.00
10014;BME280;45684;48.358;10.746;2023-06-22T06:06:31;96169.44;;;21.76;100.00
10014;BME280;45684;48.358;10.746;2023-06-22T06:09:01;96169.09;;;21.88;100.00
10014;BME280;45684;48.358;10.746;2023-06-22T06:14:19;96176.97;;;22.01;100.00
10014;BME280;45684;48.358;10.746;2023-06-22T06:16:48;96179.34;;;22.02;100.00
10014;BME280;45684;48.358;10.746;2023-06-22T06:19:16;96175.81;;;22.09;100.00
10014;BME280;45684;48.358;10.746;2023-06-22T06:21:44;96176.63;;;22.13;100.00
10014;BME280;45684;48.358;10.746;2023-06-22T06:24:12;96179.78;;;22.19;100.00
10014;BME280;45684;48.358;10.746;2023-06-22T06:26:40;96178.63;;;22.27;100.00
10014;BME280;45684;48.358;10.746;2023-06-22T06:29:09;96175.47;;;22.35;100.00
10014;BME280;45684;48.358;10.746;2023-06-22T06:31:37;96168.00;;;22.39;100.00
10014;BME280;45684;48.358;10.746;2023-06-22T06:34:06;96177.06;;;22.51;100.00
10014;BME280;45684;48.358;10.746;2023-06-22T06:36:34;96179.03;;;22.54;100.00
10014;BME280;45684;48.358;10.746;2023-06-22T06:39:02;96173.50;;;22.61;100.00
10014;BME280;45684;48.358;10.746;2023-06-22T06:41:31;96173.50;;;22.68;100.00
10014;BME280;45684;48.358;10.746;2023-06-22T06:43:59;96165.22;;;22.75;100.00
10014;BME280;45684;48.358;10.746;2023-06-22T06:46:27;96167.59;;;22.87;100.00
10014;BME280;45684;48.358;10.746;2023-06-22T06:48:55;96164.44;;;22.96;100.00
10014;BME280;45684;48.358;10.746;2023-06-22T06:51:24;96163.63;;;23.03;100.00
10014;BME280;45684;48.358;10.746;2023-06-22T06:53:52;96160.47;;;23.11;100.00
10014;BME280;45684;48.358;10.746;2023-06-22T06:56:20;96169.94;;;23.14;100.00
10014;BME280;45684;48.358;10.746;2023-06-22T06:58:50;96173.84;;;23.20;100.00
10014;BME280;45684;48.358;10.746;2023-06-22T07:01:18;96176.59;;;23.27;100.00
10014;BME280;45684;48.358;10.746;2023-06-22T07:03:48;96166.31;;;23.31;100.00
10014;BME280;45684;48.358;10.746;2023-06-22T07:06:16;96162.38;;;23.32;100.00
10014;BME280;45684;48.358;10.746;2023-06-22T07:08:45;96163.16;;;23.36;100.00
10014;BME280;45684;48.358;10.746;2023-06-22T07:11:13;96153.28;;;23.39;100.00
10014;BME280;45684;48.358;10.746;2023-06-22T07:13:41;96154.44;;;23.49;100.00
10014;BME280;45684;48.358;10.746;2023-06-22T07:16:12;96151.66;;;23.56;100.00
10014;BME280;45684;48.358;10.746;2023-06-22T07:18:40;96156.78;;;23.64;100.00
10014;BME280;45684;48.358;10.746;2023-06-22T07:21:08;96151.63;;;23.70;100.00
10014;BME280;45684;48.358;10.746;2023-06-22T07:23:36;96152.75;;;23.76;100.00
10014;BME280;45684;48.358;10.746;2023-06-22T07:26:05;96149.19;;;23.83;100.00
10014;BME280;45684;48.358;10.746;2023-06-22T07:28:34;96143.19;;;23.91;100.00
10014;BME280;45684;48.358;10.746;2023-06-22T07:31:04;96136.44;;;24.00;100.00
10014;BME280;45684;48.358;10.746;2023-06-22T07:33:32;96138.72;;;24.15;100.00
10014;BME280;45684;48.358;10.746;2023-06-22T07:36:00;96134.66;;;24.27;100.00
10014;BME280;45684;48.358;10.746;2023-06-22T07:38:29;96139.34;;;24.41;100.00
10014;BME280;45684;48.358;10.746;2023-06-22T07:40:57;96123.81;;;24.54;100.00
10014;BME280;45684;48.358;10.746;2023-06-22T07:43:26;96136.34;;;24.66;100.00
10014;BME280;45684;48.358;10.746;2023-06-22T07:45:55;96136.25;;;24.77;100.00
10014;BME280;45684;48.358;10.746;2023-06-22T07:48:24;96143.25;;;24.88;100.00
10014;BME280;45684;48.358;10.746;2023-06-22T07:50:52;96136.44;;;25.00;100.00
10014;BME280;45684;48.358;10.746;2023-06-22T07:53:21;96150.53;;;25.13;100.00
10014;BME280;45684;48.358;10.746;2023-06-22T07:55:49;96143.72;;;25.21;100.00
10014;BME280;45684;48.358;10.746;2023-06-22T07:58:17;96152.72;;;25.32;100.00
10014;BME280;45684;48.358;10.746;2023-06-22T08:00:48;96151.38;;;25.44;100.00
10014;BME280;45684;48.358;10.746;2023-06-22T08:03:16;96155.22;;;25.54;100.00
10014;BME280;45684;48.358;10.746;2023-06-22T08:05:45;96151.16;;;25.62;100.00
10014;BME280;45684;48.358;10.746;2023-06-22T08:08:13;96147.47;;;25.72;100.00
10014;BME280;45684;48.358;10.746;2023-06-22T08:10:41;96143.78;;;25.82;100.00
10014;BME280;45684;48.358;10.746;2023-06-22T08:13:09;96142.53;;;25.87;100.00
10014;BME280;45684;48.358;10.746;2023-06-22T08:15:38;96150.34;;;25.95;100.00
10014;BME280;45684;48.358;10.746;2023-06-22T08:18:07;96152.56;;;26.08;100.00
10014;BME280;45684;48.358;10.746;2023-06-22T08:20:35;96141.31;;;26.18;100.00
10014;BME280;45684;48.358;10.746;2023-06-22T08:23:02;96149.44;;;26.29;100.00
10014;BME280;45684;48.358;10.746;2023-06-22T08:25:32;96149.66;;;26.42;100.00
10014;BME280;45684;48.358;10.746;2023-06-22T08:28:01;96153.13;;;26.50;100.00
10014;BME280;45684;48.358;10.746;2023-06-22T08:30:28;96147.84;;;26.59;100.00
10014;BME280;45684;48.358;10.746;2023-06-22T08:32:56;96145.31;;;26.68;99.37
10014;BME280;45684;48.358;10.746;2023-06-22T08:35:25;96151.44;;;26.79;100.00
10014;BME280;45684;48.358;10.746;2023-06-22T08:37:54;96148.47;;;26.90;98.80
10014;BME280;45684;48.358;10.746;2023-06-22T08:40:23;96151.91;;;26.98;97.18
10014;BME280;45684;48.358;10.746;2023-06-22T08:42:51;96141.81;;;27.07;96.23
10014;BME280;45684;48.358;10.746;2023-06-22T08:45:19;96149.56;;;27.19;94.08
10014;BME280;45684;48.358;10.746;2023-06-22T08:47:47;96140.25;;;27.30;94.58
10014;BME280;45684;48.358;10.746;2023-06-22T08:50:15;96142.38;;;27.42;95.19
10014;BME280;45684;48.358;10.746;2023-06-22T08:52:44;96134.16;;;27.55;96.13
10014;BME280;45684;48.358;10.746;2023-06-22T08:55:12;96141.88;;;27.67;91.58
10014;BME280;45684;48.358;10.746;2023-06-22T08:57:41;96142.09;;;27.76;91.68
10014;BME280;45684;48.358;10.746;2023-06-22T09:00:10;96141.41;;;27.88;90.25
10014;BME280;45684;48.358;10.746;2023-06-22T09:02:43;96138.25;;;28.06;90.39
10014;BME280;45684;48.358;10.746;2023-06-22T09:05:12;96134.53;;;28.13;92.58
10014;BME280;45684;48.358;10.746;2023-06-22T09:07:40;96140.63;;;28.24;89.21
10014;BME280;45684;48.358;10.746;2023-06-22T09:10:10;96138.56;;;28.44;88.90
10014;BME280;45684;48.358;10.746;2023-06-22T09:12:39;96138.91;;;28.63;87.65
10014;BME280;45684;48.358;10.746;2023-06-22T09:15:07;96136.66;;;28.74;82.52
10014;BME280;45684;48.358;10.746;2023-06-22T09:17:42;96140.09;;;28.94;82.13
10014;BME280;45684;48.358;10.746;2023-06-22T09:20:10;96123.56;;;29.20;82.13
10014;BME280;45684;48.358;10.746;2023-06-22T09:22:40;96123.16;;;29.47;79.21
10014;BME280;45684;48.358;10.746;2023-06-22T09:25:10;96128.06;;;29.72;77.82
10014;BME280;45684;48.358;10.746;2023-06-22T09:27:38;96125.06;;;29.92;75.94
10014;BME280;45684;48.358;10.746;2023-06-22T09:30:07;96115.63;;;30.15;73.59
10014;BME280;45684;48.358;10.746;2023-06-22T09:32:35;96118.84;;;30.39;71.33
10014;BME280;45684;48.358;10.746;2023-06-22T09:35:05;96115.81;;;30.59;69.92
10014;BME280;45684;48.358;10.746;2023-06-22T09:37:33;96108.22;;;30.72;68.66
10014;BME280;45684;48.358;10.746;2023-06-22T09:40:01;96105.50;;;30.81;70.80
10014;BME280;45684;48.358;10.746;2023-06-22T09:42:32;96107.59;;;30.90;66.07
10014;BME280;45684;48.358;10.746;2023-06-22T09:45:00;96101.22;;;31.02;63.01
10014;BME280;45684;48.358;10.746;2023-06-22T09:47:29;96103.50;;;31.16;62.78
10014;BME280;45684;48.358;10.746;2023-06-22T09:49:57;96096.53;;;31.34;63.92
10014;BME280;45684;48.358;10.746;2023-06-22T09:52:26;96087.78;;;31.54;64.09
10014;BME280;45684;48.358;10.746;2023-06-22T09:55:12;96084.66;;;32.05;61.52
10014;BME280;45684;48.358;10.746;2023-06-22T09:57:43;96081.84;;;32.45;57.50
10014;BME280;45684;48.358;10.746;2023-06-22T10:00:12;96092.53;;;32.96;54.91
10014;BME280;45684;48.358;10.746;2023-06-22T10:02:41;96099.41;;;33.50;52.35
10014;BME280;45684;48.358;10.746;2023-06-22T10:05:10;96081.69;;;33.86;50.28
10014;BME280;45684;48.358;10.746;2023-06-22T10:07:38;96095.03;;;33.49;49.34
10014;BME280;45684;48.358;10.746;2023-06-22T10:10:10;96101.41;;;33.04;51.88
10014;BME280;45684;48.358;10.746;2023-06-22T10:12:46;96102.75;;;32.62;52.40
10014;BME280;45684;48.358;10.746;2023-06-22T10:15:14;96111.56;;;32.42;54.78
10014;BME280;45684;48.358;10.746;2023-06-22T10:17:43;96106.56;;;32.37;53.38
10014;BME280;45684;48.358;10.746;2023-06-22T10:20:11;96102.38;;;32.42;54.41
10014;BME280;45684;48.358;10.746;2023-06-22T10:22:40;96112.25;;;32.65;51.69
10014;BME280;45684;48.358;10.746;2023-06-22T10:25:09;96111.16;;;32.71;51.37
10014;BME280;45684;48.358;10.746;2023-06-22T10:27:37;96101.69;;;32.87;52.55
10014;BME280;45684;48.358;10.746;2023-06-22T10:30:09;96108.50;;;32.77;49.49
10014;BME280;45684;48.358;10.746;2023-06-22T10:32:39;96107.94;;;33.00;52.20
10014;BME280;45684;48.358;10.746;2023-06-22T10:35:08;96102.34;;;33.28;52.02
10014;BME280;45684;48.358;10.746;2023-06-22T10:37:37;96108.88;;;33.62;52.84
10014;BME280;45684;48.358;10.746;2023-06-22T10:40:06;96105.06;;;34.01;48.52
10014;BME280;45684;48.358;10.746;2023-06-22T10:42:34;96108.41;;;34.24;46.66
10014;BME280;45684;48.358;10.746;2023-06-22T10:45:03;96103.19;;;33.98;44.57
10014;BME280;45684;48.358;10.746;2023-06-22T10:47:32;96109.19;;;34.24;47.48
10014;BME280;45684;48.358;10.746;2023-06-22T10:50:00;96105.06;;;34.01;43.92
10014;BME280;45684;48.358;10.746;2023-06-22T10:52:28;96102.13;;;33.96;43.71
10014;BME280;45684;48.358;10.746;2023-06-22T10:54:57;96105.63;;;34.15;43.56
10014;BME280;45684;48.358;10.746;2023-06-22T10:57:25;96101.91;;;34.75;41.89
10014;BME280;45684;48.358;10.746;2023-06-22T10:59:53;96092.66;;;34.84;41.33
10014;BME280;45684;48.358;10.746;2023-06-22T11:02:21;96090.94;;;34.77;39.93
10014;BME280;45684;48.358;10.746;2023-06-22T11:04:50;96094.38;;;35.05;43.62
10014;BME280;45684;48.358;10.746;2023-06-22T11:07:18;96088.31;;;35.36;41.33
10014;BME280;45684;48.358;10.746;2023-06-22T11:09:46;96093.22;;;35.80;40.73
10014;BME280;45684;48.358;10.746;2023-06-22T11:12:14;96087.41;;;35.84;40.19
10014;BME280;45684;48.358;10.746;2023-06-22T11:14:42;96082.63;;;36.05;41.82
10014;BME280;45684;48.358;10.746;2023-06-22T11:17:10;96091.88;;;36.55;41.41
10014;BME280;45684;48.358;10.746;2023-06-22T11:19:37;96099.09;;;36.76;38.96
10014;BME280;45684;48.358;10.746;2023-06-22T11:22:07;96093.16;;;36.74;38.11
10014;BME280;45684;48.358;10.746;2023-06-22T11:24:35;96092.25;;;36.83;36.97
10014;BME280;45684;48.358;10.746;2023-06-22T11:27:03;96085.22;;;36.93;36.97
10014;BME280;45684;48.358;10.746;2023-06-22T11:29:32;96070.63;;;37.15;39.21
10014;BME280;45684;48.358;10.746;2023-06-22T11:32:05;96079.13;;;37.41;39.08
10014;BME280;45684;48.358;10.746;2023-06-22T11:34:33;96069.56;;;37.85;38.11
10014;BME280;45684;48.358;10.746;2023-06-22T11:37:01;96067.84;;;37.93;34.19
10014;BME280;45684;48.358;10.746;2023-06-22T11:39:30;96051.34;;;38.23;34.76
10014;BME280;45684;48.358;10.746;2023-06-22T11:42:08;96054.16;;;38.61;33.38
10014;BME280;45684;48.358;10.746;2023-06-22T11:44:36;96044.16;;;38.65;36.45
10014;BME280;45684;48.358;10.746;2023-06-22T11:47:05;96038.88;;;38.84;35.57
10014;BME280;45684;48.358;10.746;2023-06-22T11:49:33;96035.34;;;39.00;32.84
10014;BME280;45684;48.358;10.746;2023-06-22T11:52:01;96028.34;;;38.85;34.43
10014;BME280;45684;48.358;10.746;2023-06-22T11:54:29;96028.31;;;38.79;36.88
10014;BME280;45684;48.358;10.746;2023-06-22T11:56:58;96026.91;;;38.52;35.10
10014;BME280;45684;48.358;10.746;2023-06-22T11:59:26;96025.47;;;37.93;33.95
10014;BME280;45684;48.358;10.746;2023-06-22T12:01:53;96029.00;;;37.57;34.72
10014;BME280;45684;48.358;10.746;2023-06-22T12:04:21;96014.66;;;37.08;36.38
10014;BME280;45684;48.358;10.746;2023-06-22T12:06:49;96013.22;;;37.76;37.67
10014;BME280;45684;48.358;10.746;2023-06-22T12:09:17;96010.09;;;37.68;36.73
10014;BME280;45684;48.358;10.746;2023-06-22T12:11:45;95998.66;;;37.83;37.92
10014;BME280;45684;48.358;10.746;2023-06-22T12:14:14;95991.56;;;37.93;39.49
10014;BME280;45684;48.358;10.746;2023-06-22T12:16:43;96001.03;;;37.90;38.48
10014;BME280;45684;48.358;10.746;2023-06-22T12:19:11;95996.25;;;38.02;38.31
10014;BME280;45684;48.358;10.746;2023-06-22T12:21:39;95999.63;;;38.06;38.12
10014;BME280;45684;48.358;10.746;2023-06-22T12:24:07;95991.28;;;37.91;38.74
10014;BME280;45684;48.358;10.746;2023-06-22T12:26:35;95993.25;;;37.79;37.95
10014;BME280;45684;48.358;10.746;2023-06-22T12:29:03;95995.97;;;38.00;37.84
10014;BME280;45684;48.358;10.746;2023-06-22T12:31:32;95990.88;;;38.47;37.66
10014;BME280;45684;48.358;10.746;2023-06-22T12:34:00;95989.25;;;38.83;37.01
10014;BME280;45684;48.358;10.746;2023-06-22T12:36:28;95992.63;;;38.93;34.28
10014;BME280;45684;48.358;10.746;2023-06-22T12:38:55;95988.47;;;38.88;33.07
10014;BME280;45684;48.358;10.746;2023-06-22T12:41:23;95992.91;;;39.00;35.14
10014;BME280;45684;48.358;10.746;2023-06-22T12:43:51;95989.66;;;39.41;33.33
10014;BME280;45684;48.358;10.746;2023-06-22T12:46:19;95988.66;;;39.72;33.05
10014;BME280;45684;48.358;10.746;2023-06-22T12:48:48;95989.41;;;39.84;31.92
10014;BME280;45684;48.358;10.746;2023-06-22T12:51:20;95989.16;;;39.71;31.93
10014;BME280;45684;48.358;10.746;2023-06-22T12:53:48;95990.69;;;39.72;33.00